Time;durP1;ratioP1;P1;durP2;ratioP2;P2;SDS_P1;SDS_P2;PMS_P1;PMS_P2;Temp;Humidity;BMP_temperature;BMP_pressure;BME280_temperature;BME280_humidity;BME280_pressure;Samples;Min_cycle;Max_cycle;Signal;HPM_P1;HPM_P2
2021/12/24 00:00:15;;;;;;;6.97;3.75;;;17.90;57.40;;;;;;4987215;28;20022;-63
2021/12/24 00:02:40;;;;;;;5.68;4.22;;;17.90;57.30;;;;;;4986535;28;20029;-63
2021/12/24 00:05:06;;;;;;;7.82;4.40;;;17.90;57.30;;;;;;4986735;28;20018;-64
2021/12/24 00:07:32;;;;;;;7.15;4.20;;;18.00;57.30;;;;;;4989509;28;20726;-64
2021/12/24 00:09:57;;;;;;;9.98;4.75;;;18.00;57.10;;;;;;4986590;28;20053;-65
2021/12/24 00:12:25;;;;;;;11.27;4.55;;;18.00;57.10;;;;;;4986577;28;20010;-66
2021/12/24 00:14:55;;;;;;;6.28;4.45;;;18.00;57.00;;;;;;4986457;28;20526;-65
2021/12/24 00:17:27;;;;;;;7.68;4.35;;;18.00;57.00;;;;;;4987234;28;20034;-65
2021/12/24 00:22:56;;;;;;;5.22;3.78;;;18.00;57.00;;;;;;4990758;28;20134;-64
2021/12/24 00:36:05;;;;;;;7.57;4.28;;;18.00;56.60;;;;;;4982272;28;20383;-65
2021/12/24 00:38:31;;;;;;;7.30;4.82;;;18.00;56.50;;;;;;4984731;28;20023;-64
2021/12/24 00:40:57;;;;;;;5.90;4.45;;;18.00;56.50;;;;;;4984806;28;20023;-64
2021/12/24 00:43:22;;;;;;;8.63;4.65;;;18.00;56.30;;;;;;4984966;28;20054;-64
2021/12/24 00:45:49;;;;;;;7.00;4.05;;;18.00;56.20;;;;;;4985570;28;20072;-65
2021/12/24 00:48:16;;;;;;;5.40;4.32;;;18.10;56.30;;;;;;4986184;28;20015;-64
2021/12/24 00:56:11;;;;;;;8.55;4.55;;;18.10;56.10;;;;;;4985898;28;20382;-66
2021/12/24 00:58:37;;;;;;;4.82;3.78;;;18.10;55.90;;;;;;4985258;28;20018;-64
2021/12/24 01:01:04;;;;;;;5.78;3.75;;;18.10;55.90;;;;;;4985937;28;20033;-64
2021/12/24 01:03:29;;;;;;;6.07;4.25;;;18.00;56.00;;;;;;4989042;28;20026;-63
2021/12/24 01:05:55;;;;;;;4.00;3.60;;;18.00;56.20;;;;;;4985587;28;20023;-64
2021/12/24 01:08:20;;;;;;;5.20;4.25;;;17.90;56.40;;;;;;4991097;28;20050;-63
2021/12/24 01:10:51;;;;;;;5.47;3.75;;;17.90;56.40;;;;;;4985567;28;20518;-63
2021/12/24 01:13:16;;;;;;;4.28;3.88;;;17.90;56.40;;;;;;4985888;28;20026;-63
2021/12/24 01:15:54;;;;;;;4.60;3.60;;;17.90;56.50;;;;;;4985843;28;20071;-66
2021/12/24 01:18:39;;;;;;;4.25;3.78;;;17.90;56.50;;;;;;4985083;28;20034;-64
2021/12/24 01:23:45;;;;;;;4.20;3.60;;;17.90;56.60;;;;;;4986833;28;20917;-63
2021/12/24 01:26:18;;;;;;;4.57;3.80;;;17.90;56.50;;;;;;4978890;28;20026;-63
2021/12/24 01:42:42;;;;;;;3.75;3.40;;;17.90;56.60;;;;;;4985709;28;20033;-63
2021/12/24 01:45:19;;;;;;;3.70;3.22;;;17.90;56.60;;;;;;4988433;28;20014;-63
2021/12/24 01:47:45;;;;;;;4.40;3.50;;;17.90;56.50;;;;;;4985788;28;20383;-64
2021/12/24 01:50:11;;;;;;;3.40;3.10;;;17.90;56.50;;;;;;4985517;28;20021;-63
2021/12/24 01:52:38;;;;;;;6.22;3.50;;;17.90;56.40;;;;;;4988764;28;20015;-62
2021/12/24 01:55:04;;;;;;;4.65;3.50;;;17.90;56.30;;;;;;4990464;28;20038;-63
2021/12/24 01:57:32;;;;;;;4.32;3.42;;;18.00;56.20;;;;;;4989967;28;20026;-65
2021/12/24 01:59:58;;;;;;;3.13;2.78;;;18.00;56.10;;;;;;4992589;28;20507;-63
2021/12/24 02:02:23;;;;;;;3.17;2.85;;;17.90;55.90;;;;;;4989677;28;20055;-63
2021/12/24 02:04:49;;;;;;;3.85;3.30;;;18.00;55.80;;;;;;4988751;28;20022;-65
2021/12/24 02:07:14;;;;;;;3.17;2.65;;;18.00;55.70;;;;;;4989881;28;20065;-65
2021/12/24 02:09:40;;;;;;;3.38;3.08;;;17.90;55.40;;;;;;4994062;28;20036;-65
2021/12/24 02:12:07;;;;;;;3.40;3.08;;;18.00;55.30;;;;;;4988547;28;20030;-63
2021/12/24 02:14:36;;;;;;;3.25;2.95;;;18.00;55.00;;;;;;4989074;28;20027;-65
2021/12/24 02:30:27;;;;;;;3.33;2.50;;;17.90;54.00;;;;;;4987861;28;20080;-62
2021/12/24 02:32:53;;;;;;;3.10;2.22;;;17.90;53.80;;;;;;4987167;28;20784;-62
2021/12/24 02:35:18;;;;;;;4.30;2.40;;;17.90;53.70;;;;;;4986753;28;20073;-62
2021/12/24 02:37:44;;;;;;;2.60;2.40;;;17.90;53.70;;;;;;4983407;28;20022;-62
2021/12/24 02:40:10;;;;;;;3.72;2.30;;;17.90;53.60;;;;;;4985344;28;20022;-63
2021/12/24 02:42:36;;;;;;;2.40;2.15;;;17.90;53.70;;;;;;4982673;28;20015;-62
2021/12/24 02:45:01;;;;;;;2.15;1.95;;;17.90;53.70;;;;;;4986663;28;20387;-62
2021/12/24 02:47:54;;;;;;;2.47;2.00;;;17.90;53.60;;;;;;4983208;28;20538;-62
2021/12/24 02:55:30;;;;;;;1.67;1.40;;;17.90;53.50;;;;;;4986236;28;20025;-63
2021/12/24 02:57:56;;;;;;;1.60;1.50;;;17.80;53.40;;;;;;4981124;28;20019;-62
2021/12/24 03:00:26;;;;;;;1.55;1.40;;;17.90;53.30;;;;;;4984258;28;20034;-63
2021/12/24 03:02:51;;;;;;;1.67;1.45;;;17.90;53.30;;;;;;4981493;28;20593;-63
2021/12/24 03:05:18;;;;;;;1.52;1.20;;;17.90;53.20;;;;;;4986313;28;20022;-62
2021/12/24 03:07:44;;;;;;;2.00;1.30;;;17.90;53.30;;;;;;4982788;28;20023;-62
2021/12/24 03:10:16;;;;;;;1.23;1.10;;;17.90;53.20;;;;;;4986115;28;20050;-62
2021/12/24 03:12:43;;;;;;;1.30;1.20;;;17.90;53.20;;;;;;4975218;28;20050;-63
2021/12/24 03:15:10;;;;;;;1.90;1.30;;;17.90;53.10;;;;;;4986113;28;20491;-62
2021/12/24 03:17:35;;;;;;;1.10;1.00;;;17.90;53.00;;;;;;4983916;28;20092;-62
2021/12/24 03:20:07;;;;;;;1.05;0.95;;;17.90;53.00;;;;;;4985537;28;20486;-63
2021/12/24 03:22:51;;;;;;;2.25;1.08;;;17.90;52.90;;;;;;4983621;28;20101;-62
2021/12/24 03:25:16;;;;;;;1.25;1.05;;;17.90;52.80;;;;;;4984229;28;20054;-62
2021/12/24 03:27:42;;;;;;;1.05;0.90;;;17.90;52.80;;;;;;4981741;28;20497;-62
2021/12/24 03:30:08;;;;;;;1.02;0.90;;;17.90;52.80;;;;;;4985679;28;20026;-62
2021/12/24 03:32:33;;;;;;;1.25;0.90;;;17.90;52.80;;;;;;4978089;28;20375;-63
2021/12/24 03:34:59;;;;;;;0.75;0.70;;;17.90;52.80;;;;;;4993229;28;20026;-62
2021/12/24 03:37:24;;;;;;;1.20;0.88;;;17.90;52.70;;;;;;4981378;28;20031;-62
2021/12/24 03:39:50;;;;;;;1.77;0.80;;;17.80;52.70;;;;;;4985303;28;20060;-63
2021/12/24 03:42:15;;;;;;;1.23;0.93;;;17.80;52.70;;;;;;4980903;28;20031;-62
2021/12/24 03:44:52;;;;;;;0.73;0.73;;;17.80;52.80;;;;;;4985927;28;20100;-63
2021/12/24 03:47:20;;;;;;;0.85;0.85;;;17.80;52.60;;;;;;4981272;28;20131;-61
2021/12/24 03:55:03;;;;;;;1.20;0.82;;;17.80;52.80;;;;;;4965432;28;20042;-62
2021/12/24 03:57:33;;;;;;;1.33;0.70;;;17.80;52.70;;;;;;4980953;28;20040;-62
2021/12/24 04:00:04;;;;;;;1.30;0.65;;;17.80;52.70;;;;;;4985366;28;20487;-63
2021/12/24 04:02:29;;;;;;;0.90;0.80;;;17.80;52.70;;;;;;4981979;28;20787;-62
2021/12/24 04:04:55;;;;;;;0.80;0.70;;;17.80;52.70;;;;;;4985614;28;20104;-63
2021/12/24 04:07:20;;;;;;;0.70;0.70;;;17.80;52.70;;;;;;4980962;28;20035;-62
2021/12/24 04:09:56;;;;;;;1.30;1.20;;;17.80;52.60;;;;;;4996239;28;20352;-62
2021/12/24 04:12:21;;;;;;;1.15;0.90;;;17.80;52.70;;;;;;4980921;28;20034;-62
2021/12/24 04:14:47;;;;;;;0.95;0.82;;;17.80;52.70;;;;;;4984257;28;20026;-62
2021/12/24 04:17:12;;;;;;;1.30;0.80;;;17.80;52.70;;;;;;4978525;28;20594;-62
2021/12/24 04:24:51;;;;;;;1.52;0.88;;;17.80;52.70;;;;;;4984495;28;20157;-63
2021/12/24 04:25:08;;;;;;;1.10;1.00;;;17.80;52.70;;;;;;4984875;28;20053;-62
2021/12/24 04:27:33;;;;;;;0.80;0.80;;;17.80;52.60;;;;;;4981258;28;20074;-62
2021/12/24 04:30:08;;;;;;;0.80;0.80;;;17.80;52.60;;;;;;4984874;28;20033;-62
2021/12/24 04:35:32;;;;;;;1.23;0.98;;;17.80;52.60;;;;;;4984584;28;20530;-62
2021/12/24 04:38:26;;;;;;;1.10;1.00;;;17.80;52.50;;;;;;4980142;28;20154;-63
2021/12/24 04:51:53;;;;;;;1.00;0.90;;;17.80;52.40;;;;;;4980529;28;20049;-62
2021/12/24 05:05:22;;;;;;;1.52;1.42;;;17.90;52.20;;;;;;4984516;28;20032;-62
2021/12/24 05:10:17;;;;;;;1.83;1.15;;;17.90;52.20;;;;;;4984307;28;20061;-62
2021/12/24 05:12:42;;;;;;;1.13;1.02;;;18.00;52.20;;;;;;4980294;28;20394;-62
2021/12/24 05:15:10;;;;;;;1.38;1.20;;;17.90;52.10;;;;;;4984131;28;20041;-62
2021/12/24 05:23:03;;;;;;;2.55;1.60;;;18.00;52.00;;;;;;4970932;28;20589;-59
2021/12/24 05:25:29;;;;;;;2.05;1.58;;;18.00;52.10;;;;;;4982172;28;20030;-62
2021/12/24 05:27:57;;;;;;;1.95;1.67;;;18.00;52.40;;;;;;4985609;28;20033;-62
2021/12/24 05:30:23;;;;;;;1.60;1.30;;;17.90;52.60;;;;;;4987704;28;20034;-63
2021/12/24 05:32:49;;;;;;;1.55;1.30;;;17.90;52.70;;;;;;4986157;28;20023;-63
2021/12/24 05:35:14;;;;;;;1.95;1.67;;;17.90;52.70;;;;;;4988680;28;20558;-62
2021/12/24 05:37:40;;;;;;;1.73;1.63;;;17.90;52.70;;;;;;4988297;28;20394;-63
2021/12/24 05:40:06;;;;;;;2.50;1.60;;;18.00;52.70;;;;;;4987668;28;20056;-63
2021/12/24 05:42:33;;;;;;;2.10;1.80;;;17.90;52.60;;;;;;4987764;28;20599;-63
2021/12/24 05:45:04;;;;;;;1.83;1.60;;;18.00;52.60;;;;;;4987563;28;20030;-63
2021/12/24 05:47:29;;;;;;;2.28;1.95;;;18.00;52.50;;;;;;4987429;28;20030;-63
2021/12/24 05:49:55;;;;;;;2.38;2.13;;;18.00;52.30;;;;;;4987525;28;20026;-63
2021/12/24 05:52:20;;;;;;;1.73;1.40;;;18.00;52.20;;;;;;4987778;28;20135;-63
2021/12/24 05:54:46;;;;;;;2.22;2.03;;;18.10;52.10;;;;;;4987687;28;20411;-62
2021/12/24 05:57:12;;;;;;;1.75;1.63;;;18.10;52.00;;;;;;4987856;28;20022;-63
2021/12/24 05:59:37;;;;;;;3.35;1.77;;;18.10;51.90;;;;;;4987065;28;20049;-62
2021/12/24 06:02:03;;;;;;;2.85;1.90;;;18.20;51.90;;;;;;4987043;28;20534;-62
2021/12/24 06:04:29;;;;;;;2.25;2.05;;;18.20;51.80;;;;;;4987162;28;20037;-63
2021/12/24 06:06:54;;;;;;;2.10;1.65;;;18.20;51.70;;;;;;4987399;28;20027;-63
2021/12/24 06:09:20;;;;;;;1.83;1.73;;;18.20;51.60;;;;;;4987579;28;20800;-63
2021/12/24 06:11:45;;;;;;;1.90;1.80;;;18.20;51.70;;;;;;4985375;28;20475;-63
2021/12/24 06:14:12;;;;;;;2.17;1.95;;;18.20;51.60;;;;;;4987182;28;20030;-63
2021/12/24 06:16:46;;;;;;;1.90;1.70;;;18.20;51.60;;;;;;4982601;28;20224;-63
2021/12/24 06:19:12;;;;;;;2.20;2.00;;;18.20;51.50;;;;;;5003966;28;20034;-63
2021/12/24 06:21:38;;;;;;;1.98;1.77;;;18.20;51.40;;;;;;4987335;28;20751;-62
2021/12/24 06:24:04;;;;;;;3.53;1.90;;;18.20;51.40;;;;;;4987730;28;20022;-63
2021/12/24 06:26:29;;;;;;;1.88;1.73;;;18.20;51.30;;;;;;4986323;28;20053;-62
2021/12/24 06:28:55;;;;;;;1.83;1.65;;;18.20;51.30;;;;;;4987009;28;20040;-63
2021/12/24 06:31:20;;;;;;;4.10;2.10;;;18.20;51.40;;;;;;4987438;28;20049;-63
2021/12/24 06:33:46;;;;;;;2.13;1.80;;;18.20;51.50;;;;;;4987096;28;20030;-64
2021/12/24 06:36:12;;;;;;;2.13;1.55;;;18.20;51.80;;;;;;4987278;28;20022;-63
2021/12/24 06:38:37;;;;;;;1.80;1.65;;;18.20;51.90;;;;;;4986417;28;20038;-63
2021/12/24 06:41:03;;;;;;;1.83;1.70;;;18.10;52.00;;;;;;4986995;28;20026;-63
2021/12/24 06:43:28;;;;;;;1.90;1.70;;;18.10;52.70;;;;;;4987350;28;20101;-63
2021/12/24 06:45:54;;;;;;;2.00;1.80;;;18.10;52.00;;;;;;4987813;28;20030;-63
2021/12/24 06:48:19;;;;;;;2.22;1.70;;;18.20;52.10;;;;;;4987101;28;20022;-62
2021/12/24 06:50:45;;;;;;;2.10;1.95;;;18.10;52.00;;;;;;4987048;28;20034;-63
2021/12/24 06:53:11;;;;;;;2.25;2.05;;;18.20;52.10;;;;;;4987227;28;20030;-65
2021/12/24 06:55:36;;;;;;;2.08;1.88;;;18.20;52.00;;;;;;4987310;28;20073;-63
2021/12/24 06:58:02;;;;;;;2.00;1.85;;;18.20;51.80;;;;;;4986562;28;20018;-63
2021/12/24 07:00:27;;;;;;;2.95;2.47;;;18.20;51.80;;;;;;4987344;28;20545;-61
2021/12/24 07:02:53;;;;;;;2.00;1.77;;;18.20;51.70;;;;;;4986783;28;20026;-63
2021/12/24 07:05:18;;;;;;;2.40;1.90;;;18.20;51.60;;;;;;4986468;28;20022;-63
2021/12/24 07:07:44;;;;;;;1.80;1.67;;;18.30;51.50;;;;;;4987729;28;20045;-62
2021/12/24 07:10:09;;;;;;;2.10;1.90;;;18.30;51.40;;;;;;4985148;28;20061;-63
2021/12/24 07:12:35;;;;;;;3.40;2.00;;;18.30;51.40;;;;;;4985786;28;20034;-63
2021/12/24 07:15:01;;;;;;;2.05;1.83;;;18.30;51.30;;;;;;4985596;28;20077;-63
2021/12/24 07:17:26;;;;;;;2.75;1.90;;;18.30;51.30;;;;;;4987214;28;20061;-63
2021/12/24 07:19:52;;;;;;;2.35;2.10;;;18.30;51.30;;;;;;4986148;28;20025;-63
2021/12/24 07:22:18;;;;;;;2.15;1.95;;;18.30;51.40;;;;;;4987683;28;20479;-63
2021/12/24 07:24:44;;;;;;;2.72;2.10;;;18.30;51.50;;;;;;4987299;28;20080;-62
2021/12/24 07:27:09;;;;;;;5.38;2.17;;;18.30;51.60;;;;;;4985772;28;20448;-63
2021/12/24 07:29:36;;;;;;;2.33;1.60;;;18.30;51.70;;;;;;4985332;28;20038;-63
2021/12/24 07:32:02;;;;;;;4.15;1.60;;;18.20;51.80;;;;;;4985460;28;20022;-63
2021/12/24 07:34:27;;;;;;;2.33;1.60;;;18.20;52.10;;;;;;4985995;28;20035;-62
2021/12/24 07:36:53;;;;;;;5.15;1.40;;;18.20;52.20;;;;;;4986063;28;20034;-63
2021/12/24 07:39:18;;;;;;;4.78;1.73;;;18.20;52.50;;;;;;4985114;28;20031;-63
2021/12/24 07:41:44;;;;;;;3.05;1.80;;;18.10;52.60;;;;;;4983904;28;20026;-63
2021/12/24 07:44:09;;;;;;;3.92;1.70;;;18.10;52.70;;;;;;4985070;28;20102;-62
2021/12/24 07:46:44;;;;;;;5.43;1.50;;;18.10;52.90;;;;;;4985708;28;20026;-64
2021/12/24 07:49:30;;;;;;;4.32;1.35;;;18.10;53.00;;;;;;4984003;28;20611;-63
2021/12/24 07:52:09;;;;;;;3.15;1.70;;;18.10;53.10;;;;;;4985309;28;20057;-63
2021/12/24 07:54:37;;;;;;;1.65;1.40;;;18.10;53.60;;;;;;4977750;28;20477;-62
2021/12/24 07:57:03;;;;;;;3.38;1.38;;;18.00;53.30;;;;;;4984694;28;20187;-62
2021/12/24 07:59:29;;;;;;;2.60;1.60;;;18.10;53.40;;;;;;4979036;28;20394;-63
2021/12/24 08:01:55;;;;;;;3.00;1.50;;;18.10;53.50;;;;;;4976824;28;20058;-63
2021/12/24 08:04:21;;;;;;;2.63;1.45;;;18.00;53.60;;;;;;4985282;28;20060;-64
2021/12/24 08:06:46;;;;;;;3.97;1.33;;;18.00;53.70;;;;;;4985201;28;20030;-62
2021/12/24 08:09:12;;;;;;;3.40;1.65;;;18.10;53.80;;;;;;4984105;28;20023;-63
2021/12/24 08:11:37;;;;;;;3.05;1.48;;;18.00;53.80;;;;;;4985467;28;20383;-63
2021/12/24 08:14:05;;;;;;;2.92;1.40;;;18.10;54.00;;;;;;4984883;28;20149;-61
2021/12/24 08:16:31;;;;;;;5.10;2.03;;;18.00;53.90;;;;;;4983850;28;20034;-63
2021/12/24 08:18:56;;;;;;;4.45;2.05;;;18.10;54.00;;;;;;5020279;23;20562;-72
2021/12/24 08:21:22;;;;;;;4.57;1.55;;;18.00;54.00;;;;;;5024105;28;20415;-71
2021/12/24 08:23:48;;;;;;;3.95;1.90;;;18.00;54.00;;;;;;5023136;28;20033;-74
2021/12/24 08:26:14;;;;;;;3.17;1.65;;;18.00;54.00;;;;;;5031990;28;20036;-71
2021/12/24 08:28:40;;;;;;;2.45;1.50;;;18.00;54.00;;;;;;5027176;28;20553;-71
2021/12/24 08:31:06;;;;;;;4.95;1.63;;;18.00;54.00;;;;;;5024476;28;20041;-72
2021/12/24 08:33:34;;;;;;;5.05;1.85;;;17.90;54.00;;;;;;5007281;28;20037;-71
2021/12/24 08:35:59;;;;;;;7.53;1.88;;;17.90;54.00;;;;;;5042970;28;20025;-71
2021/12/24 08:38:25;;;;;;;2.67;1.60;;;17.90;54.00;;;;;;5042495;28;20035;-72
2021/12/24 08:40:50;;;;;;;4.40;1.80;;;17.90;54.10;;;;;;5037261;28;20033;-71
2021/12/24 08:43:16;;;;;;;2.55;1.73;;;17.90;54.10;;;;;;5044086;28;20059;-71
2021/12/24 08:45:41;;;;;;;2.42;1.70;;;17.90;54.10;;;;;;5018188;28;20029;-71
2021/12/24 08:48:07;;;;;;;1.80;1.63;;;17.90;54.00;;;;;;5042910;28;20033;-72
2021/12/24 08:50:32;;;;;;;6.63;2.90;;;17.90;54.00;;;;;;5032876;28;20627;-73
2021/12/24 08:52:58;;;;;;;2.13;1.65;;;17.90;54.00;;;;;;5044347;28;20048;-73
2021/12/24 08:55:23;;;;;;;2.95;1.75;;;17.90;54.10;;;;;;5025360;28;20035;-72
2021/12/24 08:57:49;;;;;;;2.70;2.00;;;17.90;53.90;;;;;;5026977;28;20029;-71
2021/12/24 09:00:14;;;;;;;3.40;2.08;;;17.90;54.00;;;;;;5043308;28;21440;-72
2021/12/24 09:02:40;;;;;;;2.85;2.40;;;17.90;54.20;;;;;;5021861;28;20025;-72
2021/12/24 09:05:06;;;;;;;8.50;2.67;;;17.90;54.30;;;;;;5043616;28;20037;-71
2021/12/24 09:07:32;;;;;;;6.25;3.38;;;17.90;54.70;;;;;;5042135;28;20091;-71
2021/12/24 09:09:57;;;;;;;6.60;3.20;;;17.90;55.30;;;;;;5042265;28;20472;-71
2021/12/24 09:12:23;;;;;;;5.65;3.03;;;17.90;55.30;;;;;;5007999;28;20034;-71
2021/12/24 09:14:49;;;;;;;3.42;2.92;;;17.90;55.20;;;;;;5043789;28;20125;-72
2021/12/24 09:17:14;;;;;;;4.28;3.13;;;17.90;55.00;;;;;;5043556;28;20064;-72
2021/12/24 09:19:46;;;;;;;5.32;2.35;;;17.90;54.90;;;;;;5007366;28;20517;-72
2021/12/24 09:22:16;;;;;;;3.42;2.97;;;17.90;55.00;;;;;;5039678;28;20021;-72
2021/12/24 09:24:42;;;;;;;4.63;3.08;;;17.90;55.50;;;;;;5028674;28;20029;-74
2021/12/24 09:27:08;;;;;;;5.30;2.97;;;17.90;55.40;;;;;;5042103;28;20029;-73
2021/12/24 09:29:34;;;;;;;7.15;2.97;;;17.90;55.30;;;;;;5042655;28;20040;-73
2021/12/24 09:31:59;;;;;;;8.43;3.25;;;17.90;55.30;;;;;;5043206;28;20064;-73
2021/12/24 09:34:25;;;;;;;6.85;4.07;;;17.90;55.30;;;;;;5043165;28;20033;-74
2021/12/24 09:36:50;;;;;;;9.80;4.45;;;17.90;55.40;;;;;;5037188;28;20091;-72
2021/12/24 09:39:16;;;;;;;7.88;4.95;;;17.90;55.70;;;;;;5043220;28;20036;-73
2021/12/24 09:41:41;;;;;;;10.25;4.90;;;17.80;56.20;;;;;;5022185;28;20025;-73
2021/12/24 09:44:07;;;;;;;6.80;3.83;;;17.80;56.30;;;;;;5042031;28;20029;-73
2021/12/24 09:46:33;;;;;;;6.50;3.22;;;17.80;56.20;;;;;;5022845;28;20597;-73
2021/12/24 09:48:58;;;;;;;8.77;4.00;;;17.80;56.40;;;;;;5008719;28;20032;-72
2021/12/24 09:51:26;;;;;;;10.98;3.33;;;17.70;56.60;;;;;;5021514;28;20428;-74
2021/12/24 09:53:52;;;;;;;10.38;3.90;;;17.70;56.60;;;;;;5036584;28;20032;-74
2021/12/24 09:56:18;;;;;;;8.95;4.30;;;17.70;56.70;;;;;;5025127;28;20021;-72
2021/12/24 09:58:43;;;;;;;11.10;4.38;;;17.70;56.70;;;;;;5022791;28;20053;-72
2021/12/24 10:01:30;;;;;;;9.65;5.03;;;17.70;56.90;;;;;;5022830;28;20163;-72
2021/12/24 10:04:25;;;;;;;7.75;4.85;;;17.70;56.90;;;;;;5025183;28;20036;-72
2021/12/24 10:06:53;;;;;;;10.52;4.60;;;17.70;56.90;;;;;;5034364;28;20646;-72
2021/12/24 10:09:18;;;;;;;7.68;4.60;;;17.60;57.10;;;;;;5025266;28;20029;-72
2021/12/24 10:11:49;;;;;;;11.10;5.43;;;17.70;57.30;;;;;;5041553;28;20029;-74
2021/12/24 10:14:16;;;;;;;8.32;5.15;;;17.70;57.20;;;;;;5028950;28;20029;-72
2021/12/24 10:16:43;;;;;;;8.93;5.10;;;17.60;57.10;;;;;;5024333;28;20038;-72
2021/12/24 10:19:09;;;;;;;7.60;4.10;;;17.60;57.20;;;;;;5041836;28;20495;-73
2021/12/24 10:21:35;;;;;;;8.82;4.88;;;17.60;57.30;;;;;;5028431;28;20028;-73
2021/12/24 10:24:03;;;;;;;8.48;4.18;;;17.60;57.40;;;;;;5047905;28;20052;-76
2021/12/24 10:26:33;;;;;;;15.73;7.93;;;17.60;57.30;;;;;;5048815;28;20509;-75
2021/12/24 10:29:03;;;;;;;44.15;11.80;;;17.60;57.60;;;;;;5025819;28;20034;-73
2021/12/24 10:31:49;;;;;;;22.50;10.75;;;17.70;58.30;;;;;;5047384;28;20040;-75
2021/12/24 10:34:26;;;;;;;26.38;13.35;;;17.70;58.90;;;;;;5041318;28;20037;-72
2021/12/24 10:37:00;;;;;;;31.52;13.38;;;17.80;58.90;;;;;;5029515;28;20039;-73
2021/12/24 10:39:47;;;;;;;34.33;14.80;;;17.80;58.80;;;;;;5046979;28;20035;-73
2021/12/24 10:42:20;;;;;;;29.88;13.88;;;17.80;59.00;;;;;;5047479;28;20087;-73
2021/12/24 10:44:46;;;;;;;27.02;13.50;;;17.80;59.00;;;;;;5047871;28;20059;-74
2021/12/24 10:47:20;;;;;;;31.13;13.68;;;17.80;59.30;;;;;;5049275;28;20136;-75
2021/12/24 10:49:55;;;;;;;31.48;13.82;;;17.80;59.80;;;;;;5050227;28;20116;-73
2021/12/24 10:55:01;;;;;;;29.70;12.25;;;17.80;59.40;;;;;;5033183;28;20033;-75
2021/12/24 10:57:28;;;;;;;24.33;12.05;;;17.80;59.20;;;;;;5032381;28;20395;-75
2021/12/24 10:59:56;;;;;;;23.15;11.80;;;17.80;59.20;;;;;;5051851;28;20025;-74
2021/12/24 11:02:26;;;;;;;20.73;10.88;;;17.80;59.00;;;;;;5048497;28;20037;-72
2021/12/24 11:04:53;;;;;;;21.17;10.20;;;17.80;59.10;;;;;;5033778;28;20044;-73
2021/12/24 11:07:39;;;;;;;20.52;9.82;;;17.80;58.90;;;;;;5033273;28;20101;-72
2021/12/24 11:10:19;;;;;;;20.77;9.23;;;17.80;59.40;;;;;;5032048;28;20033;-72
2021/12/24 11:12:54;;;;;;;17.80;9.13;;;17.80;60.10;;;;;;5046588;28;20029;-72
2021/12/24 11:15:27;;;;;;;14.32;7.38;;;17.80;60.30;;;;;;5025074;28;20095;-72
2021/12/24 11:17:57;;;;;;;15.75;7.03;;;17.80;59.90;;;;;;5033425;28;20082;-73
2021/12/24 11:20:23;;;;;;;14.55;5.57;;;17.80;60.00;;;;;;5048971;28;20037;-72
2021/12/24 11:22:53;;;;;;;8.77;4.90;;;17.80;60.80;;;;;;5048755;28;20048;-72
2021/12/24 11:25:19;;;;;;;7.95;4.97;;;17.90;60.30;;;;;;5047334;28;20041;-72
2021/12/24 11:27:44;;;;;;;9.00;4.60;;;17.90;60.20;;;;;;5046832;28;20040;-70
2021/12/24 11:30:10;;;;;;;8.35;3.95;;;17.80;60.00;;;;;;5045515;28;20044;-74
2021/12/24 11:32:36;;;;;;;10.15;4.25;;;17.80;59.80;;;;;;5026951;28;20030;-72
2021/12/24 11:35:02;;;;;;;13.65;4.32;;;17.80;59.80;;;;;;5043957;28;20048;-72
2021/12/24 11:37:27;;;;;;;8.88;5.28;;;17.80;59.90;;;;;;5028261;28;20034;-73
2021/12/24 11:39:53;;;;;;;12.35;5.10;;;17.70;59.70;;;;;;5030189;28;20032;-73
2021/12/24 11:42:20;;;;;;;12.65;5.35;;;17.70;59.60;;;;;;5007336;28;20060;-72
2021/12/24 11:44:46;;;;;;;9.82;5.15;;;17.70;59.30;;;;;;5021512;28;20035;-71
2021/12/24 11:47:11;;;;;;;9.82;4.80;;;17.80;59.20;;;;;;5024029;28;20017;-71
2021/12/24 11:49:37;;;;;;;12.18;5.30;;;17.70;59.10;;;;;;5024411;28;20056;-73
2021/12/24 11:52:03;;;;;;;9.48;4.90;;;17.70;59.30;;;;;;5026792;28;20803;-70
2021/12/24 11:54:29;;;;;;;14.45;5.70;;;17.70;59.30;;;;;;5026441;28;20385;-70
2021/12/24 11:56:56;;;;;;;18.83;6.78;;;17.70;59.10;;;;;;5027861;28;20037;-72
2021/12/24 11:59:36;;;;;;;19.73;9.02;;;17.70;59.50;;;;;;5043746;28;20057;-71
2021/12/24 12:02:02;;;;;;;57.90;17.48;;;17.60;59.60;;;;;;5037071;28;20045;-73
2021/12/24 12:04:28;;;;;;;83.45;29.90;;;17.70;59.70;;;;;;5041572;28;20029;-70
2021/12/24 12:07:15;;;;;;;99.60;41.58;;;17.70;59.60;;;;;;5042929;28;20032;-72
2021/12/24 12:09:42;;;;;;;146.40;63.22;;;17.70;59.70;;;;;;5023281;28;20708;-74
2021/12/24 12:12:09;;;;;;;260.13;107.78;;;17.70;59.50;;;;;;5046268;28;20132;-74
2021/12/24 12:14:37;;;;;;;305.98;126.70;;;17.70;59.40;;;;;;5026731;28;20033;-72
2021/12/24 12:17:06;;;;;;;324.40;140.05;;;17.70;59.10;;;;;;5044447;28;20521;-71
2021/12/24 12:19:43;;;;;;;340.60;146.75;;;17.70;59.10;;;;;;5043532;28;20115;-71
2021/12/24 12:22:15;;;;;;;356.75;150.90;;;17.70;59.10;;;;;;5027396;28;20032;-71
2021/12/24 12:27:35;;;;;;;286.35;124.20;;;17.70;59.00;;;;;;5056922;22;20061;-56
2021/12/24 12:30:21;;;;;;;283.00;119.97;;;17.70;58.40;;;;;;5023935;28;20029;-58
2021/12/24 12:32:46;;;;;;;348.92;150.70;;;17.70;58.50;;;;;;5015844;28;20026;-59
2021/12/24 12:35:12;;;;;;;327.23;143.48;;;17.70;58.70;;;;;;5018579;28;20041;-56
2021/12/24 12:37:54;;;;;;;311.25;135.63;;;17.70;58.50;;;;;;5005129;28;20033;-59
2021/12/24 12:40:19;;;;;;;348.40;146.95;;;17.70;58.40;;;;;;5002962;28;20520;-62
2021/12/24 12:42:56;;;;;;;306.25;130.25;;;17.70;58.50;;;;;;5005517;28;20038;-60
2021/12/24 12:45:43;;;;;;;298.65;124.35;;;17.80;58.30;;;;;;5005688;28;20505;-56
2021/12/24 12:48:10;;;;;;;307.25;135.10;;;17.70;58.10;;;;;;5004698;28;20046;-59
2021/12/24 12:50:36;;;;;;;291.02;130.45;;;17.80;58.10;;;;;;4986750;28;20038;-57
2021/12/24 12:53:25;;;;;;;293.25;127.05;;;17.80;58.10;;;;;;5003600;28;20168;-56
2021/12/24 12:56:14;;;;;;;308.20;139.52;;;17.80;58.00;;;;;;5003801;28;20046;-60
2021/12/24 12:58:41;;;;;;;300.45;133.45;;;17.80;58.50;;;;;;5004251;28;20030;-53
2021/12/24 13:01:13;;;;;;;311.00;139.48;;;17.80;58.50;;;;;;5003283;28;20397;-58
2021/12/24 13:04:06;;;;;;;314.58;144.75;;;17.80;58.90;;;;;;5003487;28;20026;-57
2021/12/24 13:06:39;;;;;;;322.58;141.52;;;17.80;59.30;;;;;;5003034;28;20034;-56
2021/12/24 13:09:06;;;;;;;305.92;139.82;;;17.80;59.60;;;;;;5004471;28;20054;-56
2021/12/24 13:11:41;;;;;;;293.63;131.77;;;17.80;59.60;;;;;;5005882;28;20100;-61
2021/12/24 13:14:11;;;;;;;270.63;120.45;;;17.80;59.40;;;;;;5001038;28;20038;-62
2021/12/24 13:16:38;;;;;;;249.48;112.50;;;17.80;59.20;;;;;;5001781;28;20030;-60
2021/12/24 13:19:23;;;;;;;245.55;112.90;;;17.80;59.10;;;;;;4993993;28;20536;-59
2021/12/24 13:25:05;;;;;;;216.23;95.82;;;17.80;59.00;;;;;;5002037;28;20196;-55
2021/12/24 13:27:39;;;;;;;208.05;93.93;;;17.80;58.90;;;;;;5001731;28;20091;-58
2021/12/24 13:30:20;;;;;;;201.13;91.68;;;17.90;58.90;;;;;;5000217;28;20034;-58
2021/12/24 13:32:48;;;;;;;186.35;84.72;;;17.80;58.80;;;;;;5000236;28;20045;-58
2021/12/24 13:35:15;;;;;;;173.18;82.35;;;17.90;58.70;;;;;;5000329;28;20034;-57
2021/12/24 13:37:45;;;;;;;176.73;80.45;;;17.90;58.70;;;;;;4984696;28;20030;-57
2021/12/24 13:40:12;;;;;;;178.23;78.18;;;17.90;58.60;;;;;;5001916;28;20110;-56
2021/12/24 13:42:48;;;;;;;168.75;75.18;;;17.90;58.80;;;;;;5001886;28;20084;-59
2021/12/24 13:45:13;;;;;;;158.98;74.28;;;17.80;58.80;;;;;;5001128;28;20080;-58
2021/12/24 13:48:03;;;;;;;161.73;77.97;;;17.80;58.80;;;;;;5002870;28;20492;-59
2021/12/24 13:54:31;;;;;;;;;;;17.80;59.00;;;;;;4998540;28;20569;-58
2021/12/24 13:55:58;;;;;;;155.48;77.32;;;17.80;59.30;;;;;;5005555;28;20092;-60
2021/12/24 13:58:24;;;;;;;138.25;69.60;;;17.80;59.60;;;;;;5005494;28;20490;-56
2021/12/24 14:00:52;;;;;;;133.52;68.45;;;17.80;59.40;;;;;;5004192;28;20049;-59
2021/12/24 14:03:21;;;;;;;136.52;66.32;;;17.80;59.80;;;;;;5005116;28;20037;-57
2021/12/24 14:05:48;;;;;;;133.65;62.92;;;17.80;59.70;;;;;;5001927;28;20022;-59
2021/12/24 14:08:22;;;;;;;123.25;60.28;;;17.80;59.60;;;;;;5006176;28;20033;-60
2021/12/24 14:11:01;;;;;;;121.45;61.33;;;17.80;59.60;;;;;;5006372;28;20033;-58
2021/12/24 14:13:30;;;;;;;121.93;59.45;;;17.80;59.40;;;;;;4988603;28;20041;-60
2021/12/24 14:18:53;;;;;;;102.07;48.67;;;17.90;59.20;;;;;;5003463;28;20452;-59
2021/12/24 14:24:12;;;;;;;107.43;51.38;;;17.90;59.30;;;;;;5007011;28;20037;-63
2021/12/24 14:27:00;;;;;;;90.85;44.10;;;17.90;59.20;;;;;;5003399;28;20050;-62
2021/12/24 14:29:28;;;;;;;77.75;37.78;;;17.90;58.60;;;;;;5009587;28;20699;-62
2021/12/24 14:32:08;;;;;;;95.13;44.88;;;17.90;58.30;;;;;;5008832;28;20018;-63
2021/12/24 14:34:46;;;;;;;79.07;39.13;;;17.90;58.90;;;;;;5008942;28;20069;-63
2021/12/24 14:37:41;;;;;;;76.50;38.22;;;17.90;58.70;;;;;;5010201;28;20021;-61
2021/12/24 14:40:06;;;;;;;73.85;35.28;;;17.90;58.60;;;;;;4996498;28;20041;-62